Time;durP1;ratioP1;P1;durP2;ratioP2;P2;SDS_P1;SDS_P2;PMS_P1;PMS_P2;Temp;Humidity;BMP_temperature;BMP_pressure;BME280_temperature;BME280_humidity;BME280_pressure;Samples;Min_cycle;Max_cycle;Signal;HPM_P1;HPM_P2
2023/10/26 00:00:25;;;;;;;20.83;9.32;;;;;;;19.23;52.66;97945.66;5071930;28;20196;-86
2023/10/26 00:02:51;;;;;;;22.75;9.60;;;;;;;19.19;52.78;97947.03;5071585;28;20032;-86
2023/10/26 00:05:17;;;;;;;29.77;9.98;;;;;;;19.15;52.72;97951.09;5073357;28;20098;-88
2023/10/26 00:07:43;;;;;;;23.20;8.90;;;;;;;19.13;52.90;97943.34;5072135;28;20558;-86
2023/10/26 00:10:09;;;;;;;23.58;9.57;;;;;;;19.12;52.92;97949.63;5055550;28;20035;-85
2023/10/26 00:12:34;;;;;;;22.90;8.93;;;;;;;19.08;53.01;97944.91;5073544;28;20029;-86
2023/10/26 00:15:00;;;;;;;26.35;9.90;;;;;;;19.06;53.08;97958.34;5073124;28;20036;-85
2023/10/26 00:17:25;;;;;;;20.80;9.80;;;;;;;19.04;53.03;97968.28;5073179;28;20475;-87
2023/10/26 00:19:54;;;;;;;33.15;10.77;;;;;;;19.00;53.23;97958.28;5071858;28;20114;-86
2023/10/26 00:22:20;;;;;;;19.50;9.35;;;;;;;19.00;53.07;97956.44;5072042;28;20048;-86
2023/10/26 00:24:46;;;;;;;23.98;9.85;;;;;;;18.99;53.16;97952.16;5072107;28;20024;-87
2023/10/26 00:27:11;;;;;;;23.98;9.73;;;;;;;18.96;53.18;97947.25;5072221;28;20561;-86
2023/10/26 00:29:36;;;;;;;29.45;10.20;;;;;;;18.93;53.38;97929.16;5073145;28;20024;-88
2023/10/26 00:32:04;;;;;;;21.00;10.65;;;;;;;18.90;53.45;97934.81;5072066;28;20082;-86
2023/10/26 00:34:29;;;;;;;25.05;10.45;;;;;;;18.91;53.35;97931.97;5074638;28;20024;-86
2023/10/26 00:36:55;;;;;;;35.88;9.98;;;;;;;18.87;53.51;97914.84;5074647;28;20463;-86
2023/10/26 00:39:20;;;;;;;25.52;9.50;;;;;;;18.90;53.38;97927.69;5076166;28;20437;-86
2023/10/26 00:41:50;;;;;;;26.23;9.65;;;;;;;18.88;53.50;97926.22;5074613;28;20419;-87
2023/10/26 00:44:15;;;;;;;20.42;9.43;;;;;;;18.87;53.55;97922.78;5040846;28;20047;-87
2023/10/26 00:46:41;;;;;;;26.27;10.20;;;;;;;18.85;53.55;97924.81;5073139;28;20476;-87
2023/10/26 00:49:07;;;;;;;24.70;9.27;;;;;;;18.86;53.73;97934.34;5072162;28;20024;-86
2023/10/26 00:51:32;;;;;;;19.85;9.43;;;;;;;18.81;53.82;97924.31;5071756;28;20031;-87
2023/10/26 00:53:59;;;;;;;23.55;9.43;;;;;;;18.86;53.78;97922.97;5054688;28;20486;-87
2023/10/26 00:56:25;;;;;;;23.73;9.75;;;;;;;18.86;53.66;97923.78;5072067;28;20032;-88
2023/10/26 00:58:50;;;;;;;23.83;10.00;;;;;;;18.86;53.70;97923.78;5071488;28;20025;-88
2023/10/26 01:01:16;;;;;;;24.30;10.43;;;;;;;18.86;53.84;97921.13;5071400;28;20028;-89
2023/10/26 01:03:42;;;;;;;29.05;9.32;;;;;;;18.83;53.69;97916.19;5071388;28;20032;-89
2023/10/26 01:06:08;;;;;;;31.40;10.07;;;;;;;18.83;53.91;97907.44;5054563;28;20040;-87
2023/10/26 01:08:34;;;;;;;26.08;10.00;;;;;;;18.84;53.77;97915.22;5071351;28;20039;-86
2023/10/26 01:11:01;;;;;;;22.35;8.65;;;;;;;18.81;53.82;97900.50;5071344;28;20041;-86
2023/10/26 01:13:29;;;;;;;25.23;9.75;;;;;;;18.80;53.92;97892.78;5054337;28;20032;-86
2023/10/26 01:15:55;;;;;;;17.98;8.68;;;;;;;18.73;53.88;97897.19;5055517;28;20025;-87
2023/10/26 01:18:20;;;;;;;21.13;9.30;;;;;;;18.72;53.89;97912.25;5038151;28;20043;-86
2023/10/26 01:20:46;;;;;;;22.92;9.10;;;;;;;18.71;54.00;97917.72;5054170;28;20411;-87
2023/10/26 01:23:11;;;;;;;22.50;9.48;;;;;;;18.72;54.05;97920.19;5071397;28;20040;-86
2023/10/26 01:25:37;;;;;;;27.65;10.40;;;;;;;18.69;53.99;97912.63;5071222;28;20040;-87
2023/10/26 01:28:04;;;;;;;25.25;9.60;;;;;;;18.62;54.19;97899.31;5071558;28;20032;-88
2023/10/26 01:30:31;;;;;;;21.98;8.77;;;;;;;18.62;54.42;97903.81;5071532;28;20052;-88
2023/10/26 01:32:57;;;;;;;31.92;9.40;;;;;;;18.60;54.47;97903.19;5072395;28;20060;-88
2023/10/26 01:35:22;;;;;;;24.77;9.25;;;;;;;18.57;54.51;97908.84;5057022;28;20066;-88
2023/10/26 01:37:48;;;;;;;23.58;8.77;;;;;;;18.56;54.58;97915.94;5038438;28;20039;-88
2023/10/26 01:40:14;;;;;;;17.30;9.63;;;;;;;18.53;54.45;97916.34;5071778;28;20079;-88
2023/10/26 01:42:39;;;;;;;26.50;9.45;;;;;;;18.50;54.63;97919.38;5071266;28;20395;-88
2023/10/26 01:45:05;;;;;;;22.70;9.43;;;;;;;18.52;54.61;97919.16;5055149;28;20044;-89
2023/10/26 01:47:30;;;;;;;23.75;8.70;;;;;;;18.46;54.56;97904.06;5077322;28;20055;-87
2023/10/26 01:49:56;;;;;;;25.25;9.73;;;;;;;18.47;54.51;97914.44;5041004;28;20040;-87
2023/10/26 01:52:21;;;;;;;21.25;9.48;;;;;;;18.46;54.67;97919.91;5075814;28;20071;-87
2023/10/26 01:54:49;;;;;;;25.88;8.77;;;;;;;18.49;54.67;97927.47;5057794;28;20479;-87
2023/10/26 01:57:14;;;;;;;21.20;8.68;;;;;;;18.46;54.67;97931.31;5075988;28;20078;-85
2023/10/26 01:59:41;;;;;;;22.75;9.15;;;;;;;18.46;54.63;97936.59;5058587;28;20048;-90
2023/10/26 02:02:06;;;;;;;21.08;8.85;;;;;;;18.47;54.45;97943.50;5075933;28;20398;-90
2023/10/26 02:04:31;;;;;;;22.92;8.75;;;;;;;18.41;54.61;97934.50;5074683;28;20032;-90
2023/10/26 02:06:57;;;;;;;22.20;9.15;;;;;;;18.40;54.57;97932.84;5075007;28;20025;-90
2023/10/26 02:09:22;;;;;;;22.95;9.10;;;;;;;18.43;54.51;97944.88;5075213;28;20041;-90
2023/10/26 02:11:48;;;;;;;23.67;9.30;;;;;;;18.37;54.79;97935.88;5074969;28;20055;-89
2023/10/26 02:14:14;;;;;;;30.48;9.60;;;;;;;18.38;54.81;97936.72;5074580;28;20104;-90
2023/10/26 02:16:39;;;;;;;25.75;9.77;;;;;;;18.40;54.90;97938.13;5075063;28;20479;-85
2023/10/26 02:19:05;;;;;;;26.17;9.13;;;;;;;18.35;54.85;97924.69;5075771;28;20028;-86
2023/10/26 02:21:31;;;;;;;20.25;9.02;;;;;;;18.33;55.02;97913.47;5073879;28;20055;-85
2023/10/26 02:23:56;;;;;;;17.70;8.85;;;;;;;18.36;55.16;97914.91;5074318;28;20025;-85
2023/10/26 02:26:22;;;;;;;21.08;8.88;;;;;;;18.34;54.95;97917.75;5074255;28;20469;-85
2023/10/26 02:28:47;;;;;;;22.70;9.00;;;;;;;18.31;55.35;97917.31;5074458;28;20036;-85
2023/10/26 02:31:14;;;;;;;30.35;9.55;;;;;;;18.28;55.24;97913.22;5057461;28;20486;-84
2023/10/26 02:33:40;;;;;;;29.90;8.90;;;;;;;18.31;55.27;97918.16;5057563;28;20036;-85
2023/10/26 02:36:06;;;;;;;29.42;9.57;;;;;;;18.36;55.24;97930.78;5057412;28;20486;-84
2023/10/26 02:38:32;;;;;;;29.17;9.63;;;;;;;18.34;55.10;97927.50;5074690;28;20033;-84
2023/10/26 02:41:04;;;;;;;21.75;9.35;;;;;;;18.38;55.11;97928.78;5074070;28;20036;-84
2023/10/26 02:43:30;;;;;;;28.90;9.85;;;;;;;18.35;55.38;97918.59;5073663;28;20068;-84
2023/10/26 02:46:04;;;;;;;31.00;9.43;;;;;;;18.35;55.28;97913.28;5073848;28;20056;-85
2023/10/26 02:48:30;;;;;;;24.20;9.38;;;;;;;18.42;55.46;97912.38;5073909;28;20524;-87
2023/10/26 02:50:55;;;;;;;27.20;9.70;;;;;;;18.42;55.33;97906.25;5074402;28;20161;-84
2023/10/26 02:53:22;;;;;;;24.45;9.10;;;;;;;18.44;55.46;97910.34;5075205;28;20032;-83
2023/10/26 02:55:48;;;;;;;25.55;8.90;;;;;;;18.43;55.46;97905.25;5073357;28;20025;-86
2023/10/26 02:58:14;;;;;;;21.88;8.55;;;;;;;18.42;55.48;97903.59;5055626;28;20135;-85
2023/10/26 03:00:39;;;;;;;27.27;8.90;;;;;;;18.37;55.68;97898.06;5073654;28;20020;-84
2023/10/26 03:03:05;;;;;;;25.85;8.23;;;;;;;18.38;55.55;97902.34;5057110;28;20040;-85
2023/10/26 03:05:30;;;;;;;22.98;8.57;;;;;;;18.37;55.67;97914.72;5056917;28;20032;-86
2023/10/26 03:07:56;;;;;;;28.90;8.45;;;;;;;18.35;55.76;97914.09;5074976;28;20090;-85
2023/10/26 03:10:22;;;;;;;31.30;8.38;;;;;;;18.31;55.74;97909.38;5040008;28;20082;-85
2023/10/26 03:12:50;;;;;;;22.23;7.60;;;;;;;18.33;56.00;97908.19;5073256;28;20039;-87
2023/10/26 03:15:16;;;;;;;26.48;7.85;;;;;;;18.30;56.08;97911.22;5073323;28;20037;-84
2023/10/26 03:17:42;;;;;;;27.20;8.45;;;;;;;18.27;56.05;97909.75;5056661;28;20049;-86
2023/10/26 03:20:08;;;;;;;21.55;7.78;;;;;;;18.27;56.17;97909.75;5073895;28;20032;-85
2023/10/26 03:22:34;;;;;;;26.30;8.48;;;;;;;18.26;56.17;97902.00;5076892;28;20024;-86
2023/10/26 03:25:00;;;;;;;27.75;8.50;;;;;;;18.22;56.20;97898.94;5076374;28;20032;-87
2023/10/26 03:27:26;;;;;;;23.20;8.13;;;;;;;18.24;56.20;97904.84;5076687;28;20052;-87
2023/10/26 03:29:52;;;;;;;26.48;7.57;;;;;;;18.22;56.21;97909.50;5076255;28;20482;-86
2023/10/26 03:32:18;;;;;;;23.75;7.28;;;;;;;18.20;56.22;97900.94;5043170;28;20020;-85
2023/10/26 03:34:43;;;;;;;31.60;7.60;;;;;;;18.18;56.19;97894.22;5059983;28;20124;-86
2023/10/26 03:37:09;;;;;;;18.65;6.70;;;;;;;18.18;56.31;97895.00;5059363;28;20501;-87
2023/10/26 03:39:35;;;;;;;29.02;7.28;;;;;;;18.14;56.28;97896.41;5076216;28;20028;-86
2023/10/26 03:42:01;;;;;;;22.27;7.05;;;;;;;18.09;56.34;97890.88;5076953;28;20085;-84
2023/10/26 03:44:28;;;;;;;28.42;7.63;;;;;;;18.11;56.38;97888.84;5078533;28;20040;-84
2023/10/26 03:46:53;;;;;;;21.08;6.30;;;;;;;18.09;56.26;97880.31;5094209;28;20016;-86
2023/10/26 03:49:19;;;;;;;25.48;7.15;;;;;;;18.07;56.12;97883.13;5075994;28;20483;-84
2023/10/26 03:51:46;;;;;;;28.65;7.05;;;;;;;18.07;56.68;97885.78;5059853;28;20021;-84
2023/10/26 03:54:12;;;;;;;25.85;7.35;;;;;;;18.04;56.55;97874.75;5042149;28;20134;-87
2023/10/26 03:56:38;;;;;;;31.25;6.88;;;;;;;18.06;56.54;97880.69;5060058;28;20035;-85
2023/10/26 03:59:05;;;;;;;21.15;6.32;;;;;;;18.04;56.61;97887.94;5077373;28;20036;-84
2023/10/26 04:01:30;;;;;;;30.15;6.78;;;;;;;18.03;56.56;97891.63;5061322;28;20501;-86
2023/10/26 04:03:56;;;;;;;23.25;6.65;;;;;;;18.03;56.63;97900.34;5043320;28;20040;-86
2023/10/26 04:06:22;;;;;;;23.33;6.07;;;;;;;18.04;56.53;97909.91;5059186;28;20051;-85
2023/10/26 04:08:48;;;;;;;25.33;6.18;;;;;;;18.05;56.58;97916.81;5094446;28;20036;-86
2023/10/26 04:11:17;;;;;;;26.58;6.45;;;;;;;18.05;56.51;97902.81;5075686;28;20166;-87
2023/10/26 04:13:43;;;;;;;21.67;6.15;;;;;;;18.00;56.27;97903.34;5059021;28;20101;-86
2023/10/26 04:16:11;;;;;;;29.02;6.57;;;;;;;18.07;56.57;97906.06;5058568;28;20040;-88
2023/10/26 04:18:36;;;;;;;25.42;5.93;;;;;;;18.05;56.19;97908.09;5058407;28;20491;-87
2023/10/26 04:21:02;;;;;;;20.35;5.60;;;;;;;18.05;56.54;97902.81;5058632;28;20113;-86
2023/10/26 04:23:28;;;;;;;28.63;6.13;;;;;;;18.01;56.64;97896.25;5077429;28;20487;-85
2023/10/26 04:25:57;;;;;;;19.15;5.82;;;;;;;18.07;56.42;97912.19;5094012;28;20028;-86
2023/10/26 04:28:23;;;;;;;27.42;7.15;;;;;;;18.07;56.54;97911.34;5075351;28;20043;-85
2023/10/26 04:30:49;;;;;;;27.77;6.72;;;;;;;18.07;56.67;97912.19;5075286;28;20024;-84
2023/10/26 04:33:17;;;;;;;28.02;7.32;;;;;;;18.12;56.63;97910.78;5075421;28;20034;-86
2023/10/26 04:35:47;;;;;;;;;;;;;;;18.14;56.47;97904.34;5059472;28;20459;-88
2023/10/26 04:38:13;;;;;;;33.72;8.25;;;;;;;18.15;56.43;97910.44;5060526;28;20390;-91
2023/10/26 04:40:39;;;;;;;30.83;7.50;;;;;;;18.11;56.42;97902.06;5044031;28;20035;-87
2023/10/26 04:43:06;;;;;;;28.05;7.45;;;;;;;18.16;56.58;97904.16;5059941;28;20073;-87
2023/10/26 04:45:32;;;;;;;26.27;7.50;;;;;;;18.12;56.47;97898.41;5059446;28;20039;-82
2023/10/26 04:47:58;;;;;;;29.00;7.72;;;;;;;18.16;56.67;97889.13;5058722;28;20038;-84
2023/10/26 04:50:32;;;;;;;30.83;7.45;;;;;;;18.18;56.56;97895.00;5057355;28;20387;-85
2023/10/26 04:53:06;;;;;;;34.78;7.75;;;;;;;18.17;56.52;97895.19;5076808;28;20066;-87
2023/10/26 04:55:34;;;;;;;24.75;8.02;;;;;;;18.16;56.36;97890.94;5075407;28;20398;-89
2023/10/26 04:58:02;;;;;;;30.17;7.65;;;;;;;18.20;56.37;97895.66;5095043;28;20034;-86
2023/10/26 05:00:28;;;;;;;33.33;7.85;;;;;;;18.16;56.63;97885.66;5041052;28;20450;-88
2023/10/26 05:02:54;;;;;;;23.65;7.35;;;;;;;18.13;56.46;97878.91;5075553;28;20028;-85
2023/10/26 05:05:19;;;;;;;31.13;7.10;;;;;;;18.18;56.57;97887.09;5058679;28;20400;-86
2023/10/26 05:07:45;;;;;;;37.63;7.68;;;;;;;18.21;56.39;97896.47;5074669;28;20050;-87
2023/10/26 05:10:12;;;;;;;29.52;7.55;;;;;;;18.24;56.69;97901.38;5075782;28;20081;-88
2023/10/26 05:12:39;;;;;;;27.20;7.82;;;;;;;18.25;56.58;97900.41;5075915;28;20032;-87
2023/10/26 05:15:09;;;;;;;31.73;7.82;;;;;;;18.26;56.57;97900.22;5060441;28;20410;-88
2023/10/26 05:17:38;;;;;;;26.15;7.82;;;;;;;18.25;56.75;97898.56;5058127;28;20028;-89
2023/10/26 05:20:04;;;;;;;27.92;7.53;;;;;;;18.29;56.75;97906.94;5042885;28;20111;-87
2023/10/26 05:22:32;;;;;;;27.52;7.47;;;;;;;18.30;56.67;97902.47;5060735;28;20048;-87
2023/10/26 05:25:04;;;;;;;26.13;7.30;;;;;;;18.37;56.51;97909.44;5080553;28;20086;-88
2023/10/26 05:27:31;;;;;;;24.30;7.03;;;;;;;18.42;56.30;97911.53;5079176;28;20064;-86
2023/10/26 05:29:56;;;;;;;29.48;7.47;;;;;;;18.48;56.29;97910.78;5079630;28;20016;-88
2023/10/26 05:32:22;;;;;;;30.92;8.02;;;;;;;18.55;56.34;97908.19;5062691;28;20089;-86
2023/10/26 05:34:47;;;;;;;29.23;7.10;;;;;;;18.64;56.09;97915.00;5062667;28;20410;-87
2023/10/26 05:37:13;;;;;;;28.92;7.18;;;;;;;18.72;55.68;97911.41;5080458;28;20032;-87
2023/10/26 05:39:38;;;;;;;23.13;6.97;;;;;;;18.87;55.54;97906.91;5046271;28;20471;-86
2023/10/26 05:42:06;;;;;;;27.13;7.57;;;;;;;19.18;54.91;97905.72;5045310;28;20035;-87
2023/10/26 05:44:32;;;;;;;30.30;7.82;;;;;;;19.37;54.67;97906.06;5062407;28;20452;-84
2023/10/26 05:46:59;;;;;;;34.53;6.93;;;;;;;19.47;54.46;97909.19;5096663;28;20032;-86
2023/10/26 05:49:28;;;;;;;29.60;7.38;;;;;;;19.61;54.24;97905.59;5061955;28;20031;-89
2023/10/26 05:51:53;;;;;;;42.90;8.23;;;;;;;19.74;53.87;97901.41;5097157;28;20044;-87
2023/10/26 05:54:19;;;;;;;25.25;6.68;;;;;;;19.89;53.59;97907.38;5081330;28;20540;-86
2023/10/26 05:56:46;;;;;;;27.95;6.88;;;;;;;19.95;53.65;97913.72;5049983;28;20513;-89
2023/10/26 05:59:12;;;;;;;28.25;7.07;;;;;;;19.94;53.58;97926.16;5081944;28;20183;-86
2023/10/26 06:01:38;;;;;;;28.88;6.70;;;;;;;19.84;53.51;97920.41;5061965;28;20060;-86
2023/10/26 06:04:05;;;;;;;26.13;7.05;;;;;;;19.92;53.15;97919.41;5082347;28;20020;-87
2023/10/26 06:06:30;;;;;;;26.00;7.88;;;;;;;20.09;53.14;97925.19;5067521;28;20084;-87
2023/10/26 06:08:59;;;;;;;32.80;8.93;;;;;;;20.10;53.25;97929.47;5092336;28;20375;-86
2023/10/26 06:11:25;;;;;;;35.08;7.55;;;;;;;20.11;53.01;97936.41;5106086;28;20074;-88
2023/10/26 06:13:54;;;;;;;29.38;7.28;;;;;;;20.08;53.14;97931.50;5090985;28;20096;-90
2023/10/26 06:16:20;;;;;;;35.90;7.85;;;;;;;20.17;52.77;97933.78;5094581;28;20099;-89
2023/10/26 06:18:46;;;;;;;36.80;7.57;;;;;;;20.24;52.82;97937.28;5049942;28;20032;-85
2023/10/26 06:21:13;;;;;;;46.08;7.80;;;;;;;20.29;52.91;97942.00;5065586;28;20052;-85
2023/10/26 06:23:38;;;;;;;13.45;4.88;;;;;;;20.46;56.21;97941.63;5079321;28;20028;-80
2023/10/26 06:26:09;;;;;;;24.42;5.80;;;;;;;20.83;56.25;97939.50;5061365;28;20055;-80
2023/10/26 06:28:38;;;;;;;31.75;7.30;;;;;;;21.05;53.93;97940.94;5101302;28;20024;-84
2023/10/26 06:31:11;;;;;;;26.65;7.45;;;;;;;21.15;53.38;97936.00;5078891;28;20052;-81
2023/10/26 06:33:37;;;;;;;28.88;6.93;;;;;;;21.24;52.61;97957.06;5044194;28;20052;-81
2023/10/26 06:36:04;;;;;;;37.45;7.93;;;;;;;21.16;52.11;97947.47;5078056;28;20039;-81
2023/10/26 06:38:31;;;;;;;32.95;8.05;;;;;;;21.12;51.96;97949.69;5042199;28;20020;-82
2023/10/26 06:40:59;;;;;;;34.63;8.10;;;;;;;21.15;51.75;97970.50;5056360;28;20043;-91
2023/10/26 06:43:28;;;;;;;35.50;8.55;;;;;;;21.13;51.23;97954.00;5055307;28;20032;-88
2023/10/26 06:48:30;;;;;;;30.30;9.05;;;;;;;21.22;50.98;97967.88;5158466;22;20074;-91
2023/10/26 06:53:32;;;;;;;38.08;9.27;;;;;;;21.30;50.44;97974.78;5129702;22;20068;-87
2023/10/26 06:56:01;;;;;;;30.02;8.82;;;;;;;21.68;49.57;97977.66;5163284;22;20052;-84
2023/10/26 06:58:27;;;;;;;33.97;9.85;;;;;;;21.76;49.81;97967.84;5070315;28;20419;-86
2023/10/26 07:00:55;;;;;;;31.67;9.02;;;;;;;21.86;48.93;97968.22;5075773;28;20095;-80
2023/10/26 07:03:20;;;;;;;36.00;8.60;;;;;;;22.18;48.58;97958.50;5074381;28;20033;-80
2023/10/26 07:05:47;;;;;;;29.20;9.05;;;;;;;22.55;47.21;97948.13;5040553;28;20053;-82
2023/10/26 07:08:13;;;;;;;30.58;9.35;;;;;;;23.11;46.47;97959.84;5020185;28;20068;-81
2023/10/26 07:10:40;;;;;;;28.25;8.82;;;;;;;24.64;45.30;97955.81;5019535;28;20087;-76
2023/10/26 07:13:07;;;;;;;23.58;8.40;;;;;;;25.80;42.31;97960.72;5033057;28;20395;-77
2023/10/26 07:15:39;;;;;;;30.95;8.30;;;;;;;27.18;40.10;97964.38;5041611;28;20039;-78
2023/10/26 07:18:05;;;;;;;32.50;8.97;;;;;;;28.36;37.13;97958.00;5023075;28;20071;-88
2023/10/26 07:20:31;;;;;;;31.33;8.32;;;;;;;28.09;37.13;97952.59;5029360;28;20040;-75
2023/10/26 07:22:56;;;;;;;22.83;7.68;;;;;;;27.99;37.10;97966.69;5056089;28;20051;-84
2023/10/26 07:25:23;;;;;;;48.08;8.82;;;;;;;28.33;36.55;97951.25;5025869;28;20415;-86
2023/10/26 07:28:12;;;;;;;29.93;7.80;;;;;;;28.37;36.09;97956.09;5060565;28;20041;-88
2023/10/26 07:30:39;;;;;;;32.75;8.07;;;;;;;28.77;35.53;97965.69;5037542;28;20283;-83
2023/10/26 07:33:07;;;;;;;27.75;7.40;;;;;;;29.36;34.56;97968.34;5000185;28;20512;-86
2023/10/26 07:35:40;;;;;;;31.25;8.68;;;;;;;29.78;33.80;97962.16;5021140;28;20038;-85
2023/10/26 07:38:08;;;;;;;23.40;8.07;;;;;;;29.92;32.95;97959.81;5007128;28;20040;-82
2023/10/26 07:40:37;;;;;;;31.67;8.60;;;;;;;29.74;32.91;97944.91;4988931;28;20064;-84
2023/10/26 07:43:03;;;;;;;31.02;8.23;;;;;;;29.51;32.55;97931.84;5002580;28;20424;-87
2023/10/26 07:45:32;;;;;;;30.25;8.32;;;;;;;29.23;32.49;97923.09;4988980;28;20034;-79
2023/10/26 07:47:58;;;;;;;24.92;8.90;;;;;;;28.83;33.23;97916.34;5037300;28;20045;-88
2023/10/26 07:50:25;;;;;;;31.35;8.50;;;;;;;28.47;35.26;97937.44;5133941;22;20060;-88
2023/10/26 07:52:50;;;;;;;29.33;8.95;;;;;;;28.13;35.60;97942.97;5075224;27;20023;-92
2023/10/26 07:55:19;;;;;;;29.48;9.35;;;;;;;28.05;35.73;97949.56;5077492;28;20053;-73
2023/10/26 07:57:45;;;;;;;34.05;9.35;;;;;;;27.63;35.69;97950.09;5070688;28;20037;-73
2023/10/26 08:00:13;;;;;;;35.05;10.02;;;;;;;26.93;37.34;97956.75;5042215;28;20055;-76
2023/10/26 08:02:41;;;;;;;31.97;9.53;;;;;;;26.50;38.64;97942.84;5021832;28;20063;-75
2023/10/26 08:05:07;;;;;;;32.17;9.25;;;;;;;26.24;39.09;97941.59;5038776;28;20028;-83
2023/10/26 08:07:32;;;;;;;48.05;10.40;;;;;;;25.99;37.99;97950.72;5056272;28;20489;-77
2023/10/26 08:09:58;;;;;;;30.55;10.27;;;;;;;25.70;38.85;97942.59;5037815;28;20032;-77
2023/10/26 08:12:23;;;;;;;30.77;11.15;;;;;;;25.51;40.78;97935.75;5037631;28;20109;-78
2023/10/26 08:14:55;;;;;;;40.47;10.50;;;;;;;25.36;40.69;97925.53;5054911;28;20544;-78
2023/10/26 08:17:20;;;;;;;40.10;10.98;;;;;;;25.16;40.51;97929.34;5039685;28;20116;-77
2023/10/26 08:19:50;;;;;;;38.28;11.13;;;;;;;25.01;42.31;97927.09;5055892;28;20402;-81
2023/10/26 08:22:16;;;;;;;44.50;11.70;;;;;;;24.88;45.27;97944.16;5039512;28;20495;-88
2023/10/26 08:24:41;;;;;;;38.38;10.50;;;;;;;24.79;44.79;97947.38;5065005;28;20029;-90
2023/10/26 08:27:07;;;;;;;40.47;11.30;;;;;;;24.68;44.56;97939.09;5030800;28;20029;-90
2023/10/26 08:29:33;;;;;;;36.03;10.90;;;;;;;24.60;44.37;97918.09;5048440;28;20439;-89
2023/10/26 08:32:10;;;;;;;39.28;11.57;;;;;;;24.56;44.59;97912.41;5051361;28;20029;-93
2023/10/26 08:34:45;;;;;;;43.65;12.48;;;;;;;24.48;44.45;97915.34;5072411;28;20044;-87
2023/10/26 08:37:10;;;;;;;28.38;9.77;;;;;;;24.41;44.44;97913.81;5071375;28;20109;-91
2023/10/26 08:39:37;;;;;;;24.85;10.13;;;;;;;24.40;44.27;97907.69;5037193;28;20036;-92
2023/10/26 08:42:11;;;;;;;30.95;10.55;;;;;;;24.41;44.26;97909.28;5047875;28;20028;-87
2023/10/26 08:44:57;;;;;;;26.25;10.38;;;;;;;24.49;44.05;97910.81;5051540;28;20033;-90
2023/10/26 08:47:30;;;;;;;30.90;10.05;;;;;;;24.53;43.95;97928.81;5031746;28;20065;-88
2023/10/26 08:49:58;;;;;;;39.50;9.73;;;;;;;24.62;43.74;97940.03;5031539;28;20132;-89
2023/10/26 08:52:24;;;;;;;28.08;10.48;;;;;;;24.67;43.59;97945.50;5011563;28;20095;-89
2023/10/26 08:54:53;;;;;;;32.75;9.93;;;;;;;24.73;43.44;97933.06;5012686;22;20054;-89
2023/10/26 08:57:18;;;;;;;31.88;10.45;;;;;;;24.85;42.86;97933.94;5029350;28;20059;-89
2023/10/26 08:59:45;;;;;;;27.33;10.75;;;;;;;24.92;42.51;97942.66;5046962;28;20029;-89
2023/10/26 09:02:13;;;;;;;31.42;10.48;;;;;;;24.88;42.46;97933.47;5029339;28;20029;-90
2023/10/26 09:05:02;;;;;;;;;;;;;;;24.96;42.54;97937.66;5032151;28;20037;-92
2023/10/26 09:07:38;;;;;;;27.67;9.73;;;;;;;24.82;42.57;97920.22;5049574;28;19931;-90
2023/10/26 09:10:07;;;;;;;30.45;10.27;;;;;;;25.01;42.31;97934.31;5051762;28;20032;-89
2023/10/26 09:13:29;;;;;;;26.88;9.23;;;;;;;25.09;41.82;97931.28;5051419;28;20546;-88
2023/10/26 09:15:58;;;;;;;20.27;9.15;;;;;;;25.31;41.44;97938.78;5010700;28;20064;-88
2023/10/26 09:18:25;;;;;;;23.08;9.63;;;;;;;25.41;41.53;97937.16;5050953;28;20038;-93
2023/10/26 09:21:08;;;;;;;31.42;11.13;;;;;;;25.44;41.27;97925.19;4998398;28;20124;-91
2023/10/26 09:23:43;;;;;;;26.33;9.32;;;;;;;25.52;40.94;97927.50;5029906;28;20045;-89
2023/10/26 09:26:11;;;;;;;25.15;9.73;;;;;;;25.54;40.57;97916.56;5020427;28;20056;-93
2023/10/26 09:28:55;;;;;;;30.40;10.55;;;;;;;25.71;40.27;97912.13;5032751;28;20044;-91
2023/10/26 09:31:24;;;;;;;24.90;9.43;;;;;;;26.01;39.15;97916.50;5005022;28;20025;-90
2023/10/26 09:34:22;;;;;;;31.30;9.05;;;;;;;26.01;39.50;97916.50;5017964;28;20034;-89
2023/10/26 09:37:01;;;;;;;35.00;10.15;;;;;;;25.94;39.39;97897.91;5133015;22;20040;-90
2023/10/26 09:39:36;;;;;;;27.08;9.23;;;;;;;25.97;39.26;97891.31;5063308;28;20039;-90
2023/10/26 09:42:09;;;;;;;20.95;8.43;;;;;;;25.96;39.23;97878.97;5111735;28;20036;-90
2023/10/26 09:44:38;;;;;;;26.85;8.95;;;;;;;25.99;39.55;97876.63;5079911;28;20017;-90
2023/10/26 09:47:07;;;;;;;28.88;10.05;;;;;;;26.18;38.99;97873.78;5095414;28;20048;-91
2023/10/26 09:49:35;;;;;;;35.08;9.25;;;;;;;26.49;38.77;97869.81;5107952;28;20067;-87
2023/10/26 09:52:00;;;;;;;33.25;9.35;;;;;;;26.39;38.39;97872.28;5073928;28;20047;-92
2023/10/26 09:54:47;;;;;;;23.23;8.85;;;;;;;26.34;38.53;97890.94;5091515;28;20479;-91
2023/10/26 09:57:22;;;;;;;27.58;9.30;;;;;;;26.14;38.49;97881.47;5112033;28;20091;-91
2023/10/26 09:59:53;;;;;;;27.52;9.07;;;;;;;26.12;39.16;97894.25;5072816;28;20039;-89
2023/10/26 10:02:22;;;;;;;24.40;9.10;;;;;;;25.99;39.18;97881.19;5108560;28;20031;-92
2023/10/26 10:04:55;;;;;;;30.10;9.32;;;;;;;26.00;39.18;97883.63;5085637;28;20040;-92
2023/10/26 10:07:46;;;;;;;28.48;9.55;;;;;;;25.94;39.73;97878.38;5090356;28;20020;-89
2023/10/26 10:10:13;;;;;;;27.60;9.50;;;;;;;25.78;39.67;97871.94;5091337;28;20096;-91
2023/10/26 10:12:40;;;;;;;29.13;8.93;;;;;;;25.94;39.04;97862.34;5072379;28;20082;-90
2023/10/26 10:15:11;;;;;;;32.47;9.90;;;;;;;26.12;38.71;97856.81;5084721;28;20101;-87
2023/10/26 10:17:43;;;;;;;19.13;8.75;;;;;;;26.23;39.04;97860.50;5065919;28;20083;-80
2023/10/26 10:20:27;;;;;;;26.65;8.50;;;;;;;26.31;39.25;97851.28;5093132;28;20085;-77
2023/10/26 10:22:53;;;;;;;27.70;8.40;;;;;;;26.70;38.44;97859.47;5040402;28;20032;-79
2023/10/26 10:25:19;;;;;;;26.75;8.95;;;;;;;26.76;37.86;97857.66;5056799;28;20068;-78
2023/10/26 10:27:48;;;;;;;30.13;9.00;;;;;;;26.87;37.36;97854.91;5056827;28;20024;-77
2023/10/26 10:30:13;;;;;;;24.23;8.63;;;;;;;26.85;37.30;97851.69;5074329;28;20031;-76
2023/10/26 10:32:43;;;;;;;26.13;8.73;;;;;;;26.81;37.60;97853.22;5039926;28;20016;-79
2023/10/26 10:35:10;;;;;;;28.05;8.82;;;;;;;26.79;37.19;97849.97;5062985;28;20502;-85
2023/10/26 10:37:37;;;;;;;43.90;9.65;;;;;;;26.75;37.57;97840.00;5020991;28;20408;-82
2023/10/26 10:40:15;;;;;;;37.50;8.77;;;;;;;26.67;37.13;97842.00;5019614;28;20033;-79
2023/10/26 10:42:47;;;;;;;37.50;9.18;;;;;;;26.66;38.11;97843.09;5019881;28;20033;-85
2023/10/26 10:45:15;;;;;;;30.25;9.10;;;;;;;26.59;37.52;97838.91;5025891;28;20105;-89
2023/10/26 10:47:41;;;;;;;28.80;8.68;;;;;;;26.58;37.43;97837.28;5022302;28;20059;-86
2023/10/26 10:50:20;;;;;;;25.25;8.40;;;;;;;26.50;37.67;97836.66;5042257;28;20029;-87
2023/10/26 10:52:50;;;;;;;36.13;8.20;;;;;;;26.40;37.72;97827.63;5023131;28;20039;-82
2023/10/26 10:55:29;;;;;;;33.80;8.50;;;;;;;26.16;38.64;97817.06;5037224;28;20071;-83
2023/10/26 10:58:02;;;;;;;32.65;8.98;;;;;;;25.98;38.55;97815.38;5020519;28;20028;-83
2023/10/26 11:00:59;;;;;;;34.05;9.48;;;;;;;25.80;38.99;97819.03;5022977;28;20029;-85
2023/10/26 11:03:26;;;;;;;42.30;9.40;;;;;;;25.56;39.02;97829.00;5042451;28;20021;-84
2023/10/26 11:05:52;;;;;;;37.17;8.38;;;;;;;25.39;39.32;97813.69;5021672;28;20116;-84
2023/10/26 11:08:19;;;;;;;36.05;8.60;;;;;;;25.37;39.53;97812.31;5003591;28;20533;-82
2023/10/26 11:10:49;;;;;;;33.38;8.52;;;;;;;25.23;39.41;97809.84;5037368;28;20033;-83
2023/10/26 11:13:21;;;;;;;41.95;8.45;;;;;;;25.19;39.46;97823.91;5036936;28;20029;-84
2023/10/26 11:15:47;;;;;;;32.22;7.40;;;;;;;25.17;39.77;97820.66;5021491;28;20423;-83
2023/10/26 11:18:13;;;;;;;47.80;7.57;;;;;;;25.07;39.76;97800.69;5006860;28;20033;-87
2023/10/26 11:20:45;;;;;;;31.35;7.78;;;;;;;25.07;39.89;97797.22;5054359;28;20029;-86
2023/10/26 11:23:13;;;;;;;29.40;7.78;;;;;;;25.04;39.69;97787.81;5037306;28;20548;-83
2023/10/26 11:25:39;;;;;;;33.30;7.50;;;;;;;25.01;40.06;97796.28;5020924;28;20033;-85
2023/10/26 11:28:07;;;;;;;37.95;8.52;;;;;;;25.02;39.69;97795.25;5020404;28;20033;-81
2023/10/26 11:30:51;;;;;;;27.63;7.82;;;;;;;25.18;40.23;97783.03;5045932;28;20040;-80
2023/10/26 11:33:37;;;;;;;38.17;7.47;;;;;;;25.27;39.36;97783.50;5003024;28;20037;-80